sensor_id;sensor_type;location;lat;lon;timestamp;P1;durP1;ratioP1;P2;durP2;ratioP2
57441;SDS011;43284;47.042;15.498;2022-10-30T00:00:54;22.95;;;12.13;;
57441;SDS011;43284;47.042;15.498;2022-10-30T00:03:21;22.13;;;11.50;;
57441;SDS011;43284;47.042;15.498;2022-10-30T00:05:49;18.10;;;11.10;;
57441;SDS011;43284;47.042;15.498;2022-10-30T00:08:17;22.10;;;11.60;;
57441;SDS011;43284;47.042;15.498;2022-10-30T00:10:46;23.33;;;11.95;;
57441;SDS011;43284;47.042;15.498;2022-10-30T00:13:18;20.67;;;11.32;;
57441;SDS011;43284;47.042;15.498;2022-10-30T00:15:46;20.15;;;12.10;;
57441;SDS011;43284;47.042;15.498;2022-10-30T00:18:16;16.10;;;10.93;;
57441;SDS011;43284;47.042;15.498;2022-10-30T00:20:45;21.95;;;11.77;;
57441;SDS011;43284;47.042;15.498;2022-10-30T00:23:13;21.60;;;11.05;;
57441;SDS011;43284;47.042;15.498;2022-10-30T00:25:40;23.00;;;11.30;;
57441;SDS011;43284;47.042;15.498;2022-10-30T00:28:08;20.88;;;11.30;;
57441;SDS011;43284;47.042;15.498;2022-10-30T00:30:36;22.38;;;12.23;;
57441;SDS011;43284;47.042;15.498;2022-10-30T00:33:03;20.48;;;11.32;;
57441;SDS011;43284;47.042;15.498;2022-10-30T00:35:31;20.73;;;12.02;;
57441;SDS011;43284;47.042;15.498;2022-10-30T00:37:59;18.75;;;11.23;;
57441;SDS011;43284;47.042;15.498;2022-10-30T00:40:26;22.25;;;11.00;;
57441;SDS011;43284;47.042;15.498;2022-10-30T00:42:53;19.98;;;10.65;;
57441;SDS011;43284;47.042;15.498;2022-10-30T00:45:21;18.73;;;11.57;;
57441;SDS011;43284;47.042;15.498;2022-10-30T00:47:57;24.88;;;11.80;;
57441;SDS011;43284;47.042;15.498;2022-10-30T00:50:28;19.88;;;12.52;;
57441;SDS011;43284;47.042;15.498;2022-10-30T00:53:01;22.90;;;11.20;;
57441;SDS011;43284;47.042;15.498;2022-10-30T00:58:29;30.65;;;13.55;;
57441;SDS011;43284;47.042;15.498;2022-10-30T01:00:59;25.77;;;13.70;;
57441;SDS011;43284;47.042;15.498;2022-10-30T01:03:34;26.15;;;12.63;;
57441;SDS011;43284;47.042;15.498;2022-10-30T01:06:03;48.45;;;14.68;;
57441;SDS011;43284;47.042;15.498;2022-10-30T01:08:36;56.58;;;14.60;;
57441;SDS011;43284;47.042;15.498;2022-10-30T01:11:14;32.33;;;12.02;;
57441;SDS011;43284;47.042;15.498;2022-10-30T01:13:41;21.40;;;11.70;;
57441;SDS011;43284;47.042;15.498;2022-10-30T01:39:06;60.60;;;16.45;;
57441;SDS011;43284;47.042;15.498;2022-10-30T01:41:33;45.30;;;14.75;;
57441;SDS011;43284;47.042;15.498;2022-10-30T01:44:04;28.23;;;13.00;;
57441;SDS011;43284;47.042;15.498;2022-10-30T01:46:50;30.00;;;13.35;;
57441;SDS011;43284;47.042;15.498;2022-10-30T01:49:56;19.65;;;11.70;;
57441;SDS011;43284;47.042;15.498;2022-10-30T01:52:46;18.33;;;11.70;;
57441;SDS011;43284;47.042;15.498;2022-10-30T02:01:16;23.65;;;11.50;;
57441;SDS011;43284;47.042;15.498;2022-10-30T02:03:45;21.75;;;12.07;;
57441;SDS011;43284;47.042;15.498;2022-10-30T02:06:13;20.25;;;11.82;;
57441;SDS011;43284;47.042;15.498;2022-10-30T02:08:41;22.45;;;11.57;;
57441;SDS011;43284;47.042;15.498;2022-10-30T02:11:08;19.38;;;11.85;;
57441;SDS011;43284;47.042;15.498;2022-10-30T02:13:36;17.35;;;11.25;;
57441;SDS011;43284;47.042;15.498;2022-10-30T02:16:04;18.58;;;9.82;;
57441;SDS011;43284;47.042;15.498;2022-10-30T02:18:32;25.98;;;10.63;;
57441;SDS011;43284;47.042;15.498;2022-10-30T02:21:00;20.63;;;10.45;;
57441;SDS011;43284;47.042;15.498;2022-10-30T02:23:27;21.95;;;11.38;;
57441;SDS011;43284;47.042;15.498;2022-10-30T02:25:55;22.33;;;10.45;;
57441;SDS011;43284;47.042;15.498;2022-10-30T02:28:22;20.30;;;10.40;;
57441;SDS011;43284;47.042;15.498;2022-10-30T02:30:49;25.42;;;11.65;;
57441;SDS011;43284;47.042;15.498;2022-10-30T02:33:17;23.92;;;12.85;;
57441;SDS011;43284;47.042;15.498;2022-10-30T02:35:44;25.77;;;12.70;;
57441;SDS011;43284;47.042;15.498;2022-10-30T02:38:12;54.83;;;13.68;;
57441;SDS011;43284;47.042;15.498;2022-10-30T02:40:40;57.35;;;13.15;;
57441;SDS011;43284;47.042;15.498;2022-10-30T02:43:08;27.58;;;12.85;;
57441;SDS011;43284;47.042;15.498;2022-10-30T02:45:35;81.20;;;15.32;;
57441;SDS011;43284;47.042;15.498;2022-10-30T02:48:03;36.00;;;11.63;;
57441;SDS011;43284;47.042;15.498;2022-10-30T02:50:30;16.98;;;10.88;;
57441;SDS011;43284;47.042;15.498;2022-10-30T02:52:58;17.05;;;10.73;;
57441;SDS011;43284;47.042;15.498;2022-10-30T02:55:25;19.42;;;10.27;;
57441;SDS011;43284;47.042;15.498;2022-10-30T02:57:52;28.48;;;11.25;;
57441;SDS011;43284;47.042;15.498;2022-10-30T03:00:20;21.75;;;11.40;;
57441;SDS011;43284;47.042;15.498;2022-10-30T03:02:47;25.85;;;12.38;;
57441;SDS011;43284;47.042;15.498;2022-10-30T03:05:20;18.80;;;10.77;;
57441;SDS011;43284;47.042;15.498;2022-10-30T03:07:47;19.27;;;10.13;;
57441;SDS011;43284;47.042;15.498;2022-10-30T03:10:16;24.05;;;9.65;;
57441;SDS011;43284;47.042;15.498;2022-10-30T03:12:44;16.38;;;10.25;;
57441;SDS011;43284;47.042;15.498;2022-10-30T03:15:12;16.98;;;9.48;;
57441;SDS011;43284;47.042;15.498;2022-10-30T03:17:40;20.35;;;10.93;;
57441;SDS011;43284;47.042;15.498;2022-10-30T03:20:08;17.95;;;8.77;;
57441;SDS011;43284;47.042;15.498;2022-10-30T03:22:36;18.75;;;10.57;;
57441;SDS011;43284;47.042;15.498;2022-10-30T03:25:04;15.80;;;10.32;;
57441;SDS011;43284;47.042;15.498;2022-10-30T03:27:32;11.93;;;8.43;;
57441;SDS011;43284;47.042;15.498;2022-10-30T03:29:59;15.00;;;9.07;;
57441;SDS011;43284;47.042;15.498;2022-10-30T03:32:27;20.33;;;8.57;;
57441;SDS011;43284;47.042;15.498;2022-10-30T03:34:54;13.77;;;8.52;;
57441;SDS011;43284;47.042;15.498;2022-10-30T03:37:22;17.75;;;8.52;;
57441;SDS011;43284;47.042;15.498;2022-10-30T03:39:49;17.65;;;8.20;;
57441;SDS011;43284;47.042;15.498;2022-10-30T03:42:16;17.20;;;9.18;;
57441;SDS011;43284;47.042;15.498;2022-10-30T03:44:44;13.65;;;7.80;;
57441;SDS011;43284;47.042;15.498;2022-10-30T03:47:12;13.20;;;7.25;;
57441;SDS011;43284;47.042;15.498;2022-10-30T03:49:40;17.52;;;8.63;;
57441;SDS011;43284;47.042;15.498;2022-10-30T03:52:07;12.52;;;7.68;;
57441;SDS011;43284;47.042;15.498;2022-10-30T03:54:35;14.07;;;7.97;;
57441;SDS011;43284;47.042;15.498;2022-10-30T03:57:03;14.32;;;8.15;;
57441;SDS011;43284;47.042;15.498;2022-10-30T03:59:31;13.27;;;8.23;;
57441;SDS011;43284;47.042;15.498;2022-10-30T04:01:59;13.80;;;7.85;;
57441;SDS011;43284;47.042;15.498;2022-10-30T04:04:26;13.38;;;7.60;;
57441;SDS011;43284;47.042;15.498;2022-10-30T04:06:54;12.07;;;7.72;;
57441;SDS011;43284;47.042;15.498;2022-10-30T04:09:22;13.18;;;7.47;;
57441;SDS011;43284;47.042;15.498;2022-10-30T04:11:50;14.48;;;7.47;;
57441;SDS011;43284;47.042;15.498;2022-10-30T04:14:17;11.60;;;7.78;;
57441;SDS011;43284;47.042;15.498;2022-10-30T04:16:45;10.13;;;7.43;;
57441;SDS011;43284;47.042;15.498;2022-10-30T04:19:13;17.83;;;7.13;;
57441;SDS011;43284;47.042;15.498;2022-10-30T04:21:40;13.68;;;7.30;;
57441;SDS011;43284;47.042;15.498;2022-10-30T04:24:08;16.15;;;7.93;;
57441;SDS011;43284;47.042;15.498;2022-10-30T04:26:36;16.52;;;7.70;;
57441;SDS011;43284;47.042;15.498;2022-10-30T04:29:03;12.77;;;7.13;;
57441;SDS011;43284;47.042;15.498;2022-10-30T04:31:31;14.50;;;7.38;;
57441;SDS011;43284;47.042;15.498;2022-10-30T04:33:59;9.30;;;6.65;;
57441;SDS011;43284;47.042;15.498;2022-10-30T04:36:27;16.85;;;6.25;;
57441;SDS011;43284;47.042;15.498;2022-10-30T04:38:58;11.18;;;6.90;;
57441;SDS011;43284;47.042;15.498;2022-10-30T04:41:27;12.48;;;6.30;;
57441;SDS011;43284;47.042;15.498;2022-10-30T04:43:56;15.82;;;7.03;;
57441;SDS011;43284;47.042;15.498;2022-10-30T04:46:23;21.02;;;7.18;;
57441;SDS011;43284;47.042;15.498;2022-10-30T04:48:51;14.23;;;7.10;;
57441;SDS011;43284;47.042;15.498;2022-10-30T04:51:19;13.52;;;7.10;;
57441;SDS011;43284;47.042;15.498;2022-10-30T04:53:46;10.57;;;6.68;;
57441;SDS011;43284;47.042;15.498;2022-10-30T04:56:13;11.73;;;6.57;;
57441;SDS011;43284;47.042;15.498;2022-10-30T04:58:41;14.70;;;7.47;;
57441;SDS011;43284;47.042;15.498;2022-10-30T05:01:09;12.77;;;7.40;;
57441;SDS011;43284;47.042;15.498;2022-10-30T05:03:37;9.00;;;6.18;;
57441;SDS011;43284;47.042;15.498;2022-10-30T05:06:06;15.88;;;6.35;;
57441;SDS011;43284;47.042;15.498;2022-10-30T05:08:42;16.33;;;6.18;;
57441;SDS011;43284;47.042;15.498;2022-10-30T05:11:10;11.07;;;6.38;;
57441;SDS011;43284;47.042;15.498;2022-10-30T05:13:37;9.48;;;6.45;;
57441;SDS011;43284;47.042;15.498;2022-10-30T05:16:05;13.75;;;6.10;;
57441;SDS011;43284;47.042;15.498;2022-10-30T05:18:33;12.30;;;6.45;;
57441;SDS011;43284;47.042;15.498;2022-10-30T05:21:00;11.73;;;6.25;;
57441;SDS011;43284;47.042;15.498;2022-10-30T05:23:28;12.82;;;6.75;;
57441;SDS011;43284;47.042;15.498;2022-10-30T05:25:55;13.48;;;5.68;;
57441;SDS011;43284;47.042;15.498;2022-10-30T05:28:25;14.20;;;5.75;;
57441;SDS011;43284;47.042;15.498;2022-10-30T05:30:53;17.73;;;6.15;;
57441;SDS011;43284;47.042;15.498;2022-10-30T05:33:20;8.73;;;5.18;;
57441;SDS011;43284;47.042;15.498;2022-10-30T05:35:48;12.63;;;5.65;;
57441;SDS011;43284;47.042;15.498;2022-10-30T05:38:17;10.98;;;6.07;;
57441;SDS011;43284;47.042;15.498;2022-10-30T05:40:45;12.73;;;6.60;;
57441;SDS011;43284;47.042;15.498;2022-10-30T05:43:12;12.07;;;5.13;;
57441;SDS011;43284;47.042;15.498;2022-10-30T05:45:40;15.73;;;5.93;;
57441;SDS011;43284;47.042;15.498;2022-10-30T05:48:07;17.85;;;5.93;;
57441;SDS011;43284;47.042;15.498;2022-10-30T05:50:35;10.90;;;5.30;;
57441;SDS011;43284;47.042;15.498;2022-10-30T05:53:03;22.75;;;6.63;;
57441;SDS011;43284;47.042;15.498;2022-10-30T05:55:31;15.38;;;5.95;;
57441;SDS011;43284;47.042;15.498;2022-10-30T05:58:02;14.82;;;6.68;;
57441;SDS011;43284;47.042;15.498;2022-10-30T06:00:32;15.88;;;6.15;;
57441;SDS011;43284;47.042;15.498;2022-10-30T06:03:01;12.63;;;6.25;;
57441;SDS011;43284;47.042;15.498;2022-10-30T06:05:31;13.43;;;5.28;;
57441;SDS011;43284;47.042;15.498;2022-10-30T06:08:01;9.50;;;5.75;;
57441;SDS011;43284;47.042;15.498;2022-10-30T06:10:29;13.00;;;5.40;;
57441;SDS011;43284;47.042;15.498;2022-10-30T06:13:00;11.23;;;4.95;;
57441;SDS011;43284;47.042;15.498;2022-10-30T06:15:31;46.08;;;6.93;;
57441;SDS011;43284;47.042;15.498;2022-10-30T06:17:59;23.70;;;5.50;;
57441;SDS011;43284;47.042;15.498;2022-10-30T06:20:28;14.63;;;5.28;;
57441;SDS011;43284;47.042;15.498;2022-10-30T06:22:57;15.45;;;6.25;;
57441;SDS011;43284;47.042;15.498;2022-10-30T06:25:27;9.65;;;5.05;;
57441;SDS011;43284;47.042;15.498;2022-10-30T06:27:57;11.10;;;5.50;;
57441;SDS011;43284;47.042;15.498;2022-10-30T06:30:25;14.80;;;5.93;;
57441;SDS011;43284;47.042;15.498;2022-10-30T06:33:01;12.13;;;4.95;;
57441;SDS011;43284;47.042;15.498;2022-10-30T06:35:30;14.85;;;6.45;;
57441;SDS011;43284;47.042;15.498;2022-10-30T06:37:58;12.68;;;5.18;;
57441;SDS011;43284;47.042;15.498;2022-10-30T06:40:26;11.00;;;5.55;;
57441;SDS011;43284;47.042;15.498;2022-10-30T06:42:57;15.90;;;5.72;;
57441;SDS011;43284;47.042;15.498;2022-10-30T06:45:24;12.70;;;6.80;;
57441;SDS011;43284;47.042;15.498;2022-10-30T06:47:52;16.77;;;6.50;;
57441;SDS011;43284;47.042;15.498;2022-10-30T06:50:20;21.17;;;5.97;;
57441;SDS011;43284;47.042;15.498;2022-10-30T06:52:49;14.30;;;6.25;;
57441;SDS011;43284;47.042;15.498;2022-10-30T06:55:16;13.23;;;5.70;;
57441;SDS011;43284;47.042;15.498;2022-10-30T06:57:44;13.88;;;5.90;;
57441;SDS011;43284;47.042;15.498;2022-10-30T07:00:11;11.88;;;6.05;;
57441;SDS011;43284;47.042;15.498;2022-10-30T07:02:39;12.35;;;6.35;;
57441;SDS011;43284;47.042;15.498;2022-10-30T07:05:06;17.17;;;7.53;;
57441;SDS011;43284;47.042;15.498;2022-10-30T07:07:34;18.88;;;7.75;;
57441;SDS011;43284;47.042;15.498;2022-10-30T07:10:02;16.85;;;7.60;;
57441;SDS011;43284;47.042;15.498;2022-10-30T07:12:29;14.75;;;7.53;;
57441;SDS011;43284;47.042;15.498;2022-10-30T07:14:57;15.32;;;7.72;;
57441;SDS011;43284;47.042;15.498;2022-10-30T07:17:24;21.38;;;7.88;;
57441;SDS011;43284;47.042;15.498;2022-10-30T07:19:51;16.80;;;7.72;;
57441;SDS011;43284;47.042;15.498;2022-10-30T07:22:19;17.38;;;8.05;;
57441;SDS011;43284;47.042;15.498;2022-10-30T07:24:46;18.85;;;7.82;;
57441;SDS011;43284;47.042;15.498;2022-10-30T07:27:14;16.40;;;8.88;;
57441;SDS011;43284;47.042;15.498;2022-10-30T07:29:41;15.93;;;8.63;;
57441;SDS011;43284;47.042;15.498;2022-10-30T07:32:10;26.35;;;7.97;;
57441;SDS011;43284;47.042;15.498;2022-10-30T07:34:38;24.02;;;7.60;;
57441;SDS011;43284;47.042;15.498;2022-10-30T07:37:06;21.83;;;8.70;;
57441;SDS011;43284;47.042;15.498;2022-10-30T07:39:34;22.48;;;8.77;;
57441;SDS011;43284;47.042;15.498;2022-10-30T07:42:01;19.48;;;9.45;;
57441;SDS011;43284;47.042;15.498;2022-10-30T07:44:28;22.25;;;9.15;;
57441;SDS011;43284;47.042;15.498;2022-10-30T07:46:55;21.92;;;9.00;;
57441;SDS011;43284;47.042;15.498;2022-10-30T07:49:23;20.98;;;9.10;;
57441;SDS011;43284;47.042;15.498;2022-10-30T07:51:50;21.40;;;8.38;;
57441;SDS011;43284;47.042;15.498;2022-10-30T07:54:17;15.40;;;8.02;;
57441;SDS011;43284;47.042;15.498;2022-10-30T07:56:45;23.48;;;8.63;;
57441;SDS011;43284;47.042;15.498;2022-10-30T07:59:12;20.17;;;9.13;;
57441;SDS011;43284;47.042;15.498;2022-10-30T08:01:40;19.40;;;9.00;;
57441;SDS011;43284;47.042;15.498;2022-10-30T08:04:07;15.23;;;7.60;;
57441;SDS011;43284;47.042;15.498;2022-10-30T08:06:36;20.73;;;8.40;;
57441;SDS011;43284;47.042;15.498;2022-10-30T08:09:03;17.98;;;7.60;;
57441;SDS011;43284;47.042;15.498;2022-10-30T08:11:30;14.65;;;8.00;;
57441;SDS011;43284;47.042;15.498;2022-10-30T08:13:57;20.65;;;8.25;;
57441;SDS011;43284;47.042;15.498;2022-10-30T08:16:25;14.98;;;7.90;;
57441;SDS011;43284;47.042;15.498;2022-10-30T08:18:53;13.93;;;8.27;;
57441;SDS011;43284;47.042;15.498;2022-10-30T08:21:20;19.83;;;7.72;;
57441;SDS011;43284;47.042;15.498;2022-10-30T08:23:47;14.82;;;6.97;;
57441;SDS011;43284;47.042;15.498;2022-10-30T08:26:16;13.07;;;7.35;;
57441;SDS011;43284;47.042;15.498;2022-10-30T08:28:43;10.00;;;6.63;;
57441;SDS011;43284;47.042;15.498;2022-10-30T08:31:11;13.65;;;6.20;;
57441;SDS011;43284;47.042;15.498;2022-10-30T08:33:38;13.60;;;6.72;;
57441;SDS011;43284;47.042;15.498;2022-10-30T08:36:05;12.15;;;6.40;;
57441;SDS011;43284;47.042;15.498;2022-10-30T08:38:33;8.13;;;5.75;;
57441;SDS011;43284;47.042;15.498;2022-10-30T08:41:00;8.85;;;6.63;;
57441;SDS011;43284;47.042;15.498;2022-10-30T08:43:28;11.25;;;5.55;;
57441;SDS011;43284;47.042;15.498;2022-10-30T08:45:58;11.23;;;5.80;;
57441;SDS011;43284;47.042;15.498;2022-10-30T08:48:26;8.80;;;5.68;;
57441;SDS011;43284;47.042;15.498;2022-10-30T08:50:56;11.25;;;5.70;;
57441;SDS011;43284;47.042;15.498;2022-10-30T08:53:28;14.98;;;5.82;;
57441;SDS011;43284;47.042;15.498;2022-10-30T08:55:56;9.68;;;5.45;;
57441;SDS011;43284;47.042;15.498;2022-10-30T08:58:23;10.40;;;5.20;;
57441;SDS011;43284;47.042;15.498;2022-10-30T09:00:50;14.88;;;5.75;;
57441;SDS011;43284;47.042;15.498;2022-10-30T09:03:17;13.02;;;5.47;;
57441;SDS011;43284;47.042;15.498;2022-10-30T09:05:45;9.95;;;5.68;;
57441;SDS011;43284;47.042;15.498;2022-10-30T09:08:13;12.00;;;5.10;;
57441;SDS011;43284;47.042;15.498;2022-10-30T09:10:40;11.00;;;5.88;;
57441;SDS011;43284;47.042;15.498;2022-10-30T09:13:08;11.07;;;5.40;;
57441;SDS011;43284;47.042;15.498;2022-10-30T09:15:35;11.98;;;5.40;;
57441;SDS011;43284;47.042;15.498;2022-10-30T09:18:04;13.70;;;6.10;;
57441;SDS011;43284;47.042;15.498;2022-10-30T09:20:32;9.80;;;5.38;;
57441;SDS011;43284;47.042;15.498;2022-10-30T09:22:59;15.35;;;5.82;;
57441;SDS011;43284;47.042;15.498;2022-10-30T09:25:26;15.23;;;5.30;;
57441;SDS011;43284;47.042;15.498;2022-10-30T09:27:54;13.70;;;5.60;;
57441;SDS011;43284;47.042;15.498;2022-10-30T09:30:21;10.52;;;5.38;;
57441;SDS011;43284;47.042;15.498;2022-10-30T09:32:54;14.40;;;5.60;;
57441;SDS011;43284;47.042;15.498;2022-10-30T09:35:27;9.68;;;5.05;;
57441;SDS011;43284;47.042;15.498;2022-10-30T09:37:54;11.73;;;5.03;;
57441;SDS011;43284;47.042;15.498;2022-10-30T09:40:27;10.80;;;5.63;;
57441;SDS011;43284;47.042;15.498;2022-10-30T09:43:07;17.73;;;5.63;;
57441;SDS011;43284;47.042;15.498;2022-10-30T09:48:32;12.93;;;5.00;;
57441;SDS011;43284;47.042;15.498;2022-10-30T09:54:30;14.07;;;5.80;;
57441;SDS011;43284;47.042;15.498;2022-10-30T10:02:32;11.65;;;5.00;;
57441;SDS011;43284;47.042;15.498;2022-10-30T10:05:05;11.48;;;4.78;;
57441;SDS011;43284;47.042;15.498;2022-10-30T10:07:59;13.45;;;5.75;;
57441;SDS011;43284;47.042;15.498;2022-10-30T10:10:37;14.05;;;5.50;;
57441;SDS011;43284;47.042;15.498;2022-10-30T10:13:21;12.45;;;5.68;;
57441;SDS011;43284;47.042;15.498;2022-10-30T10:16:17;11.98;;;5.25;;
57441;SDS011;43284;47.042;15.498;2022-10-30T10:18:57;14.93;;;5.38;;
57441;SDS011;43284;47.042;15.498;2022-10-30T10:21:50;13.65;;;5.10;;
57441;SDS011;43284;47.042;15.498;2022-10-30T10:27:03;13.75;;;4.38;;
57441;SDS011;43284;47.042;15.498;2022-10-30T10:29:50;14.90;;;5.50;;
57441;SDS011;43284;47.042;15.498;2022-10-30T10:40:34;15.45;;;4.68;;
57441;SDS011;43284;47.042;15.498;2022-10-30T10:51:51;18.45;;;5.85;;
57441;SDS011;43284;47.042;15.498;2022-10-30T10:54:26;9.90;;;4.88;;
57441;SDS011;43284;47.042;15.498;2022-10-30T10:56:58;14.80;;;5.25;;
57441;SDS011;43284;47.042;15.498;2022-10-30T10:59:43;14.40;;;4.80;;
57441;SDS011;43284;47.042;15.498;2022-10-30T11:05:51;10.90;;;3.72;;
57441;SDS011;43284;47.042;15.498;2022-10-30T11:13:25;14.52;;;4.47;;
57441;SDS011;43284;47.042;15.498;2022-10-30T11:16:12;9.23;;;4.70;;
57441;SDS011;43284;47.042;15.498;2022-10-30T11:18:41;13.95;;;5.07;;
57441;SDS011;43284;47.042;15.498;2022-10-30T11:21:14;10.07;;;3.97;;
57441;SDS011;43284;47.042;15.498;2022-10-30T11:23:50;10.73;;;4.13;;
57441;SDS011;43284;47.042;15.498;2022-10-30T11:28:53;8.50;;;3.88;;
57441;SDS011;43284;47.042;15.498;2022-10-30T11:31:41;15.27;;;4.20;;
57441;SDS011;43284;47.042;15.498;2022-10-30T11:34:17;15.95;;;4.20;;
57441;SDS011;43284;47.042;15.498;2022-10-30T11:37:03;7.22;;;3.80;;
57441;SDS011;43284;47.042;15.498;2022-10-30T11:39:32;11.00;;;3.90;;
57441;SDS011;43284;47.042;15.498;2022-10-30T11:42:14;13.75;;;4.30;;
57441;SDS011;43284;47.042;15.498;2022-10-30T11:47:16;12.07;;;4.00;;
57441;SDS011;43284;47.042;15.498;2022-10-30T11:52:18;11.98;;;4.25;;
57441;SDS011;43284;47.042;15.498;2022-10-30T11:54:53;11.65;;;4.60;;
57441;SDS011;43284;47.042;15.498;2022-10-30T11:57:32;13.40;;;4.55;;
57441;SDS011;43284;47.042;15.498;2022-10-30T12:02:52;14.77;;;4.40;;
57441;SDS011;43284;47.042;15.498;2022-10-30T12:08:14;13.98;;;4.18;;
57441;SDS011;43284;47.042;15.498;2022-10-30T12:10:53;10.57;;;4.13;;
57441;SDS011;43284;47.042;15.498;2022-10-30T12:13:25;18.33;;;5.43;;
57441;SDS011;43284;47.042;15.498;2022-10-30T12:16:05;11.05;;;4.97;;
57441;SDS011;43284;47.042;15.498;2022-10-30T12:18:51;12.10;;;3.90;;
57441;SDS011;43284;47.042;15.498;2022-10-30T12:21:34;11.15;;;4.03;;
57441;SDS011;43284;47.042;15.498;2022-10-30T12:24:11;15.07;;;3.95;;
57441;SDS011;43284;47.042;15.498;2022-10-30T12:26:55;9.40;;;4.00;;
57441;SDS011;43284;47.042;15.498;2022-10-30T12:29:54;12.48;;;4.18;;
57441;SDS011;43284;47.042;15.498;2022-10-30T12:32:55;15.02;;;4.80;;
57441;SDS011;43284;47.042;15.498;2022-10-30T12:41:04;12.00;;;3.55;;
57441;SDS011;43284;47.042;15.498;2022-10-30T12:44:35;9.35;;;3.75;;
57441;SDS011;43284;47.042;15.498;2022-10-30T12:47:02;13.68;;;4.60;;
57441;SDS011;43284;47.042;15.498;2022-10-30T12:49:51;11.85;;;3.95;;
57441;SDS011;43284;47.042;15.498;2022-10-30T12:52:27;13.38;;;4.60;;
57441;SDS011;43284;47.042;15.498;2022-10-30T12:55:22;12.25;;;3.58;;
57441;SDS011;43284;47.042;15.498;2022-10-30T13:03:54;14.23;;;4.13;;
57441;SDS011;43284;47.042;15.498;2022-10-30T13:07:03;11.98;;;4.28;;
57441;SDS011;43284;47.042;15.498;2022-10-30T13:09:39;16.60;;;5.10;;
57441;SDS011;43284;47.042;15.498;2022-10-30T13:12:28;16.30;;;5.32;;
57441;SDS011;43284;47.042;15.498;2022-10-30T13:15:27;13.38;;;4.30;;
57441;SDS011;43284;47.042;15.498;2022-10-30T13:18:14;21.30;;;4.88;;
57441;SDS011;43284;47.042;15.498;2022-10-30T13:24:02;12.30;;;4.28;;
57441;SDS011;43284;47.042;15.498;2022-10-30T13:26:45;9.70;;;4.18;;
57441;SDS011;43284;47.042;15.498;2022-10-30T13:41:34;16.73;;;4.13;;
57441;SDS011;43284;47.042;15.498;2022-10-30T13:44:26;13.50;;;4.40;;
57441;SDS011;43284;47.042;15.498;2022-10-30T13:52:30;12.90;;;4.10;;
57441;SDS011;43284;47.042;15.498;2022-10-30T13:58:07;10.30;;;3.92;;
57441;SDS011;43284;47.042;15.498;2022-10-30T14:03:31;17.00;;;5.55;;
57441;SDS011;43284;47.042;15.498;2022-10-30T14:06:35;12.45;;;3.88;;
57441;SDS011;43284;47.042;15.498;2022-10-30T14:12:00;10.55;;;4.55;;
57441;SDS011;43284;47.042;15.498;2022-10-30T14:15:04;14.90;;;4.28;;
57441;SDS011;43284;47.042;15.498;2022-10-30T14:18:15;12.57;;;4.10;;
57441;SDS011;43284;47.042;15.498;2022-10-30T14:20:50;14.35;;;4.25;;
57441;SDS011;43284;47.042;15.498;2022-10-30T14:23:20;9.95;;;3.70;;
57441;SDS011;43284;47.042;15.498;2022-10-30T14:28:31;15.70;;;4.07;;
57441;SDS011;43284;47.042;15.498;2022-10-30T14:31:01;9.25;;;3.83;;
57441;SDS011;43284;47.042;15.498;2022-10-30T14:36:18;10.65;;;4.22;;
57441;SDS011;43284;47.042;15.498;2022-10-30T14:39:11;12.13;;;3.83;;
57441;SDS011;43284;47.042;15.498;2022-10-30T14:42:07;10.93;;;3.58;;
57441;SDS011;43284;47.042;15.498;2022-10-30T14:58:35;12.38;;;3.70;;
57441;SDS011;43284;47.042;15.498;2022-10-30T15:06:26;16.95;;;4.68;;
57441;SDS011;43284;47.042;15.498;2022-10-30T15:11:43;11.57;;;4.03;;
57441;SDS011;43284;47.042;15.498;2022-10-30T15:14:37;20.05;;;4.80;;
57441;SDS011;43284;47.042;15.498;2022-10-30T15:17:24;12.25;;;4.00;;
57441;SDS011;43284;47.042;15.498;2022-10-30T15:19:56;15.43;;;3.92;;
57441;SDS011;43284;47.042;15.498;2022-10-30T15:22:27;15.38;;;4.13;;
57441;SDS011;43284;47.042;15.498;2022-10-30T15:24:55;12.68;;;4.47;;
57441;SDS011;43284;47.042;15.498;2022-10-30T15:27:24;17.67;;;4.30;;
57441;SDS011;43284;47.042;15.498;2022-10-30T15:29:57;16.85;;;3.90;;
57441;SDS011;43284;47.042;15.498;2022-10-30T15:32:26;19.02;;;4.30;;
57441;SDS011;43284;47.042;15.498;2022-10-30T15:35:01;11.40;;;4.20;;
57441;SDS011;43284;47.042;15.498;2022-10-30T15:37:30;20.35;;;4.15;;
57441;SDS011;43284;47.042;15.498;2022-10-30T15:40:15;11.68;;;4.05;;
57441;SDS011;43284;47.042;15.498;2022-10-30T15:42:45;15.55;;;4.10;;
57441;SDS011;43284;47.042;15.498;2022-10-30T15:45:18;13.00;;;4.13;;
57441;SDS011;43284;47.042;15.498;2022-10-30T15:48:23;15.90;;;3.83;;
57441;SDS011;43284;47.042;15.498;2022-10-30T15:56:27;14.70;;;3.85;;
57441;SDS011;43284;47.042;15.498;2022-10-30T15:59:15;12.90;;;4.03;;
57441;SDS011;43284;47.042;15.498;2022-10-30T16:01:48;19.98;;;5.28;;
57441;SDS011;43284;47.042;15.498;2022-10-30T16:04:19;16.13;;;3.88;;
57441;SDS011;43284;47.042;15.498;2022-10-30T16:06:53;17.50;;;4.90;;
57441;SDS011;43284;47.042;15.498;2022-10-30T16:09:23;14.57;;;4.68;;
57441;SDS011;43284;47.042;15.498;2022-10-30T16:11:51;9.18;;;4.35;;
57441;SDS011;43284;47.042;15.498;2022-10-30T16:14:22;11.60;;;4.13;;
57441;SDS011;43284;47.042;15.498;2022-10-30T16:16:53;14.07;;;4.93;;
57441;SDS011;43284;47.042;15.498;2022-10-30T16:19:37;9.98;;;3.72;;
57441;SDS011;43284;47.042;15.498;2022-10-30T16:22:19;17.52;;;4.78;;
57441;SDS011;43284;47.042;15.498;2022-10-30T16:24:52;12.65;;;4.38;;
57441;SDS011;43284;47.042;15.498;2022-10-30T16:27:22;13.35;;;4.57;;
57441;SDS011;43284;47.042;15.498;2022-10-30T16:29:59;16.13;;;4.97;;
57441;SDS011;43284;47.042;15.498;2022-10-30T16:32:28;11.88;;;5.65;;
57441;SDS011;43284;47.042;15.498;2022-10-30T16:34:57;16.80;;;5.40;;
57441;SDS011;43284;47.042;15.498;2022-10-30T16:37:37;19.75;;;4.93;;
57441;SDS011;43284;47.042;15.498;2022-10-30T16:40:15;18.73;;;6.38;;
57441;SDS011;43284;47.042;15.498;2022-10-30T16:42:55;16.80;;;5.10;;
57441;SDS011;43284;47.042;15.498;2022-10-30T16:47:59;13.63;;;4.93;;
57441;SDS011;43284;47.042;15.498;2022-10-30T16:50:35;16.85;;;5.28;;
57441;SDS011;43284;47.042;15.498;2022-10-30T16:53:04;15.20;;;5.47;;
57441;SDS011;43284;47.042;15.498;2022-10-30T16:55:33;23.38;;;5.65;;
57441;SDS011;43284;47.042;15.498;2022-10-30T16:58:06;16.83;;;6.45;;
57441;SDS011;43284;47.042;15.498;2022-10-30T17:00:39;15.40;;;5.65;;
57441;SDS011;43284;47.042;15.498;2022-10-30T17:03:14;23.95;;;5.93;;
57441;SDS011;43284;47.042;15.498;2022-10-30T17:05:42;21.15;;;5.72;;
57441;SDS011;43284;47.042;15.498;2022-10-30T17:10:59;15.52;;;5.05;;
57441;SDS011;43284;47.042;15.498;2022-10-30T17:13:31;22.48;;;5.05;;
57441;SDS011;43284;47.042;15.498;2022-10-30T17:18:51;15.93;;;5.53;;
57441;SDS011;43284;47.042;15.498;2022-10-30T17:21:20;14.75;;;5.60;;
57441;SDS011;43284;47.042;15.498;2022-10-30T17:23:54;20.63;;;6.32;;
57441;SDS011;43284;47.042;15.498;2022-10-30T17:26:24;20.75;;;6.88;;
57441;SDS011;43284;47.042;15.498;2022-10-30T17:28:54;17.90;;;6.28;;
57441;SDS011;43284;47.042;15.498;2022-10-30T17:34:25;21.65;;;5.60;;
57441;SDS011;43284;47.042;15.498;2022-10-30T17:36:52;17.60;;;6.05;;
57441;SDS011;43284;47.042;15.498;2022-10-30T17:39:25;20.52;;;5.70;;